Time;durP1;ratioP1;P1;durP2;ratioP2;P2;SDS_P1;SDS_P2;PMS_P1;PMS_P2;Temp;Humidity;BMP_temperature;BMP_pressure;BME280_temperature;BME280_humidity;BME280_pressure;Samples;Min_cycle;Max_cycle;Signal;HPM_P1;HPM_P2
2020/12/17 00:00:17;;;;;;;72.40;45.40;;;7.10;89.20;;;;;;4922337;28;91197;-76
2020/12/17 00:02:43;;;;;;;76.70;44.57;;;7.10;89.20;;;;;;4922278;28;91249;-76
2020/12/17 00:05:09;;;;;;;68.43;42.60;;;7.10;89.40;;;;;;4940054;28;87335;-76
2020/12/17 00:07:39;;;;;;;73.10;45.63;;;7.10;89.60;;;;;;4941338;28;86671;-77
2020/12/17 00:10:06;;;;;;;71.30;46.47;;;7.10;89.80;;;;;;4934143;28;88501;-76
2020/12/17 00:12:44;;;;;;;75.50;46.27;;;7.10;90.00;;;;;;4908844;28;91418;-77
2020/12/17 00:15:15;;;;;;;82.83;48.20;;;7.10;90.10;;;;;;4929093;28;88180;-77
2020/12/17 00:17:48;;;;;;;79.75;48.97;;;7.10;90.00;;;;;;4935514;28;87917;-77
2020/12/17 00:20:15;;;;;;;78.87;48.70;;;7.10;90.00;;;;;;4923158;28;91767;-77
2020/12/17 00:22:41;;;;;;;77.73;47.30;;;7.10;90.10;;;;;;4903372;28;91351;-76
2020/12/17 00:25:08;;;;;;;78.17;50.67;;;7.20;90.10;;;;;;4939227;28;87051;-77
2020/12/17 00:27:36;;;;;;;79.40;48.33;;;7.10;89.90;;;;;;4930856;28;87553;-77
2020/12/17 00:30:03;;;;;;;83.97;48.53;;;7.10;90.00;;;;;;4919751;28;90471;-77
2020/12/17 00:32:29;;;;;;;75.27;48.90;;;7.20;89.90;;;;;;4935190;28;87968;-77
2020/12/17 00:34:55;;;;;;;82.93;50.17;;;7.20;89.60;;;;;;4951263;28;87045;-77
2020/12/17 00:37:21;;;;;;;83.60;50.70;;;7.20;89.70;;;;;;4941247;28;86979;-77
2020/12/17 00:39:47;;;;;;;79.77;48.77;;;7.20;90.00;;;;;;4941160;28;89525;-76
2020/12/17 00:42:12;;;;;;;79.43;47.63;;;7.20;90.10;;;;;;4940925;28;91326;-76
2020/12/17 00:44:38;;;;;;;77.73;46.90;;;7.20;90.20;;;;;;4940784;28;86923;-76
2020/12/17 00:47:04;;;;;;;84.70;49.97;;;7.10;90.30;;;;;;4940309;28;87721;-76
2020/12/17 00:49:30;;;;;;;82.67;49.90;;;7.20;90.30;;;;;;4940026;28;91069;-76
2020/12/17 00:52:00;;;;;;;81.13;49.23;;;7.20;90.20;;;;;;4939906;28;91689;-76
2020/12/17 00:54:27;;;;;;;82.23;48.47;;;7.20;90.30;;;;;;4940019;28;87246;-77
2020/12/17 00:56:53;;;;;;;78.03;49.63;;;7.10;90.40;;;;;;4939909;28;86361;-77
2020/12/17 00:59:19;;;;;;;77.20;47.87;;;7.10;90.40;;;;;;4939464;28;91239;-77
2020/12/17 01:01:45;;;;;;;84.37;49.87;;;7.20;90.50;;;;;;4919719;28;91398;-77
2020/12/17 01:04:11;;;;;;;80.53;49.40;;;7.20;90.40;;;;;;4922438;28;88218;-76
2020/12/17 01:06:37;;;;;;;84.60;50.07;;;7.20;90.40;;;;;;4925326;28;87560;-76
2020/12/17 01:09:03;;;;;;;80.23;48.27;;;7.20;90.40;;;;;;4924498;28;89213;-77
2020/12/17 01:11:30;;;;;;;87.70;51.30;;;7.20;90.40;;;;;;4923892;28;89264;-76
2020/12/17 01:13:57;;;;;;;82.53;47.57;;;7.10;90.50;;;;;;4924108;28;87028;-77
2020/12/17 01:16:23;;;;;;;81.90;47.63;;;7.10;90.40;;;;;;4923716;28;87145;-77
2020/12/17 01:18:49;;;;;;;74.40;45.40;;;7.20;90.50;;;;;;4938836;28;91944;-77
2020/12/17 01:21:15;;;;;;;74.57;45.10;;;7.20;90.30;;;;;;4942807;28;91361;-77
2020/12/17 01:23:41;;;;;;;76.87;47.80;;;7.20;90.20;;;;;;4939811;28;86938;-77
2020/12/17 01:26:08;;;;;;;76.60;47.73;;;7.30;90.20;;;;;;4924351;28;87021;-76
2020/12/17 01:28:35;;;;;;;82.87;46.87;;;7.20;90.20;;;;;;4906187;28;93032;-77
2020/12/17 01:31:08;;;;;;;85.20;47.70;;;7.20;90.30;;;;;;4921719;28;92562;-77
2020/12/17 01:33:34;;;;;;;81.47;47.90;;;7.20;90.40;;;;;;4940033;28;87092;-76
2020/12/17 01:36:07;;;;;;;89.60;51.47;;;7.10;90.60;;;;;;4941029;28;87803;-77
2020/12/17 01:38:34;;;;;;;85.20;48.10;;;7.10;90.70;;;;;;4943403;28;87717;-76
2020/12/17 01:41:00;;;;;;;77.90;46.77;;;7.10;90.80;;;;;;4929478;28;91562;-77
2020/12/17 01:43:26;;;;;;;91.23;50.07;;;7.00;91.00;;;;;;4927800;28;87120;-77
2020/12/17 01:45:53;;;;;;;92.43;52.33;;;7.00;91.20;;;;;;4929277;28;86973;-77
2020/12/17 01:48:20;;;;;;;91.13;50.93;;;7.00;91.30;;;;;;4922282;28;88308;-77
2020/12/17 01:50:47;;;;;;;88.00;48.97;;;7.00;91.20;;;;;;4934114;28;87671;-77
2020/12/17 01:53:13;;;;;;;84.30;46.70;;;7.00;91.20;;;;;;4940892;28;88386;-77
2020/12/17 01:55:39;;;;;;;94.60;52.03;;;7.00;91.30;;;;;;4927929;28;87321;-76
2020/12/17 01:58:10;;;;;;;90.83;50.13;;;7.00;91.30;;;;;;4923280;28;88584;-77
2020/12/17 02:00:37;;;;;;;88.33;51.63;;;7.00;91.20;;;;;;4921614;28;87456;-77
2020/12/17 02:03:06;;;;;;;89.27;47.97;;;7.10;91.10;;;;;;4928540;28;87156;-77
2020/12/17 02:05:33;;;;;;;96.07;52.47;;;7.10;91.00;;;;;;4911383;28;87831;-77
2020/12/17 02:08:00;;;;;;;93.03;52.77;;;7.10;91.00;;;;;;4920965;28;88266;-77
2020/12/17 02:10:27;;;;;;;112.23;56.93;;;7.10;91.10;;;;;;4906093;28;91442;-77
2020/12/17 02:12:54;;;;;;;107.53;58.30;;;7.00;91.40;;;;;;4921225;28;87424;-77
2020/12/17 02:15:21;;;;;;;103.63;56.57;;;7.00;91.50;;;;;;4920827;28;88272;-77
2020/12/17 02:17:48;;;;;;;120.60;60.40;;;6.90;91.60;;;;;;4927984;28;92808;-77
2020/12/17 02:20:15;;;;;;;111.50;59.57;;;6.90;91.60;;;;;;4940682;28;92541;-77
2020/12/17 02:22:41;;;;;;;120.20;63.30;;;6.80;91.80;;;;;;4956624;28;86890;-77
2020/12/17 02:25:13;;;;;;;118.63;62.87;;;6.90;91.60;;;;;;4939295;28;86962;-76
2020/12/17 02:27:40;;;;;;;112.27;63.10;;;6.80;91.50;;;;;;4920794;28;91483;-77
2020/12/17 02:30:08;;;;;;;102.30;57.40;;;6.80;91.60;;;;;;4921316;28;91580;-77
2020/12/17 02:32:35;;;;;;;99.97;57.53;;;6.70;92.10;;;;;;4922824;28;87309;-76
2020/12/17 02:35:00;;;;;;;96.87;55.20;;;6.70;91.70;;;;;;4920683;28;86811;-77
2020/12/17 02:37:26;;;;;;;101.37;58.37;;;6.70;91.80;;;;;;4905218;28;91237;-77
2020/12/17 02:39:52;;;;;;;103.13;60.67;;;6.70;91.70;;;;;;4922865;28;87431;-77
2020/12/17 02:42:18;;;;;;;109.13;63.13;;;6.80;91.40;;;;;;4940252;28;87855;-77
2020/12/17 02:44:44;;;;;;;102.57;59.90;;;6.80;91.30;;;;;;4936406;28;87980;-76
2020/12/17 02:47:10;;;;;;;93.60;56.87;;;6.70;91.10;;;;;;4922943;28;87763;-77
2020/12/17 02:49:36;;;;;;;97.60;61.27;;;6.70;91.00;;;;;;4921162;28;91635;-76
2020/12/17 02:52:02;;;;;;;99.93;60.43;;;6.70;90.90;;;;;;4921306;28;87488;-77
2020/12/17 02:54:28;;;;;;;88.20;54.00;;;6.80;91.00;;;;;;4921303;28;87710;-76
2020/12/17 02:56:54;;;;;;;90.60;56.47;;;6.70;90.80;;;;;;4904805;28;91387;-77
2020/12/17 02:59:19;;;;;;;91.47;54.30;;;6.70;90.70;;;;;;4922152;28;90836;-76
2020/12/17 03:01:45;;;;;;;96.40;55.50;;;6.70;90.60;;;;;;4905295;28;86931;-76
2020/12/17 03:04:11;;;;;;;89.87;53.27;;;6.70;90.60;;;;;;4939393;28;87276;-76
2020/12/17 03:06:37;;;;;;;87.23;52.77;;;6.60;90.80;;;;;;4930568;28;92308;-77
2020/12/17 03:09:05;;;;;;;84.27;55.07;;;6.60;90.90;;;;;;4939775;28;92499;-76
2020/12/17 03:11:31;;;;;;;86.50;51.40;;;6.60;90.70;;;;;;4940739;28;87248;-77
2020/12/17 03:13:57;;;;;;;87.40;53.90;;;6.60;90.50;;;;;;4938572;28;87367;-77
2020/12/17 03:16:23;;;;;;;88.07;53.73;;;6.70;90.30;;;;;;4940628;28;88272;-77
2020/12/17 03:18:49;;;;;;;87.03;51.70;;;6.70;90.00;;;;;;4938790;28;91299;-77
2020/12/17 03:21:14;;;;;;;83.37;50.17;;;6.60;90.00;;;;;;4940529;28;87338;-76
2020/12/17 03:23:40;;;;;;;87.23;52.50;;;6.70;89.70;;;;;;4941675;28;86570;-76
2020/12/17 03:26:07;;;;;;;83.40;49.50;;;6.60;89.50;;;;;;4941270;28;87661;-76
2020/12/17 03:28:33;;;;;;;83.93;50.67;;;6.60;89.80;;;;;;4942567;28;88170;-77
2020/12/17 03:30:59;;;;;;;78.83;48.80;;;6.60;89.60;;;;;;4934974;28;88408;-76
2020/12/17 03:33:25;;;;;;;84.07;50.67;;;6.60;89.50;;;;;;4939781;28;86905;-76
2020/12/17 03:35:51;;;;;;;79.13;49.77;;;6.50;89.60;;;;;;4941577;28;88593;-77
2020/12/17 03:38:17;;;;;;;79.03;47.17;;;6.50;89.80;;;;;;4945141;28;90155;-77
2020/12/17 03:40:43;;;;;;;74.33;46.77;;;6.60;89.50;;;;;;4948577;28;87445;-76
2020/12/17 03:43:09;;;;;;;75.87;48.20;;;6.60;88.90;;;;;;4950340;28;88096;-77
2020/12/17 03:45:36;;;;;;;81.50;49.80;;;6.60;89.00;;;;;;4935618;28;91540;-76
2020/12/17 03:48:02;;;;;;;72.73;45.00;;;6.60;89.20;;;;;;4907203;28;91324;-77
2020/12/17 03:50:27;;;;;;;79.47;50.30;;;6.50;89.10;;;;;;4914039;28;87041;-77
2020/12/17 03:52:53;;;;;;;80.07;50.00;;;6.60;89.00;;;;;;4919429;28;88380;-76
2020/12/17 03:55:19;;;;;;;81.07;49.37;;;6.60;88.70;;;;;;4919172;28;92425;-77
2020/12/17 03:57:45;;;;;;;79.87;47.97;;;6.60;88.60;;;;;;4932059;28;90872;-76
2020/12/17 04:00:11;;;;;;;81.40;50.37;;;6.50;88.80;;;;;;4945015;28;87193;-77
2020/12/17 04:02:37;;;;;;;80.30;49.13;;;6.50;88.90;;;;;;4939457;28;88191;-76
2020/12/17 04:05:03;;;;;;;75.50;46.80;;;6.50;88.90;;;;;;4938358;28;91202;-76
2020/12/17 04:07:29;;;;;;;80.43;50.63;;;6.50;89.20;;;;;;4939385;28;88961;-77
2020/12/17 04:09:55;;;;;;;86.43;49.47;;;6.50;89.20;;;;;;4938574;28;87546;-77
2020/12/17 04:12:20;;;;;;;80.07;46.30;;;6.50;89.10;;;;;;4907972;28;87187;-76
2020/12/17 04:14:46;;;;;;;77.67;49.60;;;6.40;89.50;;;;;;4918681;28;91529;-77
2020/12/17 04:17:12;;;;;;;78.37;48.50;;;6.40;89.50;;;;;;4922807;28;91044;-77
2020/12/17 04:19:38;;;;;;;90.97;50.50;;;6.40;89.40;;;;;;4939628;28;88479;-76
2020/12/17 04:22:04;;;;;;;81.80;49.10;;;6.30;89.60;;;;;;4938552;28;88569;-77
2020/12/17 04:24:30;;;;;;;73.73;45.60;;;6.40;89.40;;;;;;4938794;28;91337;-77
2020/12/17 04:26:56;;;;;;;78.47;47.67;;;6.30;89.10;;;;;;4938733;28;87676;-77
2020/12/17 04:29:22;;;;;;;77.23;45.43;;;6.30;89.30;;;;;;4921082;28;86942;-76
2020/12/17 04:31:48;;;;;;;77.73;45.93;;;6.30;89.10;;;;;;4915573;28;88431;-77
2020/12/17 04:34:14;;;;;;;76.40;45.67;;;6.30;89.30;;;;;;4919108;28;91327;-76
2020/12/17 04:36:40;;;;;;;74.60;46.20;;;6.40;89.10;;;;;;4919635;28;87342;-76
2020/12/17 04:39:06;;;;;;;77.60;47.23;;;6.40;88.70;;;;;;4929143;28;86992;-77
2020/12/17 04:41:32;;;;;;;81.10;49.30;;;6.40;88.90;;;;;;4923043;28;87064;-77
2020/12/17 04:43:59;;;;;;;82.63;48.00;;;6.30;89.20;;;;;;4927682;28;92576;-76
2020/12/17 04:46:26;;;;;;;76.30;45.33;;;6.20;89.30;;;;;;4923611;28;88595;-77
2020/12/17 04:48:53;;;;;;;76.13;44.70;;;6.30;89.30;;;;;;4902771;28;87025;-77
2020/12/17 04:51:20;;;;;;;76.87;45.43;;;6.30;89.10;;;;;;4920758;28;87164;-77
2020/12/17 04:53:48;;;;;;;80.60;46.07;;;6.20;89.00;;;;;;4919415;28;87724;-76
2020/12/17 04:56:17;;;;;;;76.67;45.87;;;6.20;89.00;;;;;;4902970;28;91335;-77
2020/12/17 04:58:46;;;;;;;76.27;45.90;;;6.10;89.60;;;;;;4918909;28;87040;-76
2020/12/17 05:01:14;;;;;;;77.13;46.23;;;6.10;90.00;;;;;;4919518;28;87119;-77
2020/12/17 05:03:45;;;;;;;77.13;44.07;;;6.10;90.00;;;;;;4918831;28;92078;-76
2020/12/17 05:06:17;;;;;;;78.00;44.93;;;6.10;89.80;;;;;;4919076;28;90887;-77
2020/12/17 05:08:43;;;;;;;;;;;6.20;89.60;;;;;;4919427;28;87961;-76
2020/12/17 05:11:09;;;;;;;74.77;44.63;;;6.10;89.40;;;;;;4935153;28;87119;-77
2020/12/17 05:13:34;;;;;;;69.27;44.60;;;6.00;89.90;;;;;;4920530;28;88144;-76
2020/12/17 05:16:00;;;;;;;75.07;44.77;;;6.00;90.00;;;;;;4918822;28;91333;-77
2020/12/17 05:18:26;;;;;;;71.67;43.80;;;6.10;89.40;;;;;;4933053;28;86959;-77
2020/12/17 05:20:54;;;;;;;71.70;42.23;;;6.10;89.40;;;;;;4939236;28;86831;-77
2020/12/17 05:23:23;;;;;;;75.03;43.50;;;6.00;89.40;;;;;;4925211;28;88244;-76
2020/12/17 05:25:52;;;;;;;74.13;45.80;;;6.00;90.00;;;;;;4918173;28;87644;-76
2020/12/17 05:28:18;;;;;;;74.37;44.30;;;6.00;90.00;;;;;;4932022;28;87447;-77
2020/12/17 05:30:44;;;;;;;75.27;45.13;;;6.00;90.00;;;;;;4907106;28;87975;-77
2020/12/17 05:33:10;;;;;;;76.47;45.13;;;5.90;89.70;;;;;;4937495;28;91748;-77
2020/12/17 05:35:38;;;;;;;70.10;42.77;;;6.00;89.70;;;;;;4938605;28;89188;-77
2020/12/17 05:38:07;;;;;;;72.07;44.63;;;6.00;89.30;;;;;;4936042;28;87175;-76
2020/12/17 05:40:37;;;;;;;74.20;43.60;;;6.00;89.10;;;;;;4925562;28;87886;-76
2020/12/17 05:43:04;;;;;;;69.10;41.13;;;5.90;89.40;;;;;;4951602;28;88664;-77
2020/12/17 05:45:30;;;;;;;77.27;44.93;;;6.00;89.10;;;;;;4956221;28;91445;-77
2020/12/17 05:48:17;;;;;;;74.30;43.50;;;5.90;89.10;;;;;;4936934;28;87717;-76
2020/12/17 05:50:53;;;;;;;69.30;42.43;;;5.90;89.20;;;;;;4931914;28;87505;-76
2020/12/17 05:53:21;;;;;;;68.50;43.03;;;5.90;88.90;;;;;;4940576;28;91176;-77
2020/12/17 05:55:49;;;;;;;71.83;42.23;;;5.90;88.80;;;;;;4936983;28;91729;-76
2020/12/17 05:58:15;;;;;;;71.30;40.83;;;5.90;88.80;;;;;;4941718;28;88150;-76
2020/12/17 06:00:41;;;;;;;71.20;40.70;;;5.90;88.80;;;;;;4941258;28;87266;-76
2020/12/17 06:03:11;;;;;;;67.53;40.60;;;6.00;88.40;;;;;;4940563;28;88509;-76
2020/12/17 06:05:47;;;;;;;71.10;40.50;;;6.00;88.00;;;;;;4945998;28;88562;-76
2020/12/17 06:08:17;;;;;;;71.43;41.77;;;5.90;88.40;;;;;;4940990;28;87180;-76
2020/12/17 06:10:48;;;;;;;67.23;39.67;;;5.80;88.90;;;;;;4940583;28;88545;-76
2020/12/17 06:13:15;;;;;;;71.77;40.63;;;5.80;89.20;;;;;;4940152;28;90742;-77
2020/12/17 06:15:47;;;;;;;71.37;40.10;;;5.80;89.00;;;;;;4956418;28;90296;-77
2020/12/17 06:18:14;;;;;;;65.25;38.45;;;5.80;89.40;;;;;;4944055;28;87032;-77
2020/12/17 06:20:43;;;;;;;61.87;37.73;;;5.80;89.00;;;;;;4932680;28;87163;-77
2020/12/17 06:23:13;;;;;;;66.60;38.93;;;5.80;89.00;;;;;;4939664;28;89537;-77
2020/12/17 06:25:39;;;;;;;66.80;38.83;;;5.80;88.80;;;;;;4936786;28;90133;-77
2020/12/17 06:28:13;;;;;;;60.57;37.60;;;5.80;88.80;;;;;;4940918;28;87007;-77
2020/12/17 06:30:41;;;;;;;63.47;35.00;;;5.80;88.80;;;;;;4936383;28;87527;-76
2020/12/17 06:33:07;;;;;;;64.97;37.70;;;5.80;88.80;;;;;;4937201;28;87002;-77
2020/12/17 06:35:39;;;;;;;66.10;38.43;;;5.80;88.40;;;;;;4939759;28;91480;-77
2020/12/17 06:38:09;;;;;;;;;;;5.80;89.00;;;;;;4940544;28;87144;-77
2020/12/17 06:40:35;;;;;;;56.13;34.33;;;5.80;89.40;;;;;;4943215;28;88105;-77
2020/12/17 06:43:01;;;;;;;63.80;34.90;;;5.80;89.10;;;;;;4939592;28;92118;-77
2020/12/17 06:45:33;;;;;;;59.07;36.40;;;5.80;89.20;;;;;;4933099;28;91678;-76
2020/12/17 06:48:14;;;;;;;55.47;33.33;;;5.80;89.20;;;;;;4935657;28;88585;-77
2020/12/17 06:50:40;;;;;;;57.17;35.43;;;5.70;89.40;;;;;;4936740;28;87100;-77
2020/12/17 06:53:06;;;;;;;58.10;36.00;;;5.70;89.40;;;;;;4938847;28;88636;-76
2020/12/17 06:55:58;;;;;;;60.00;35.13;;;5.70;89.80;;;;;;4931257;28;87834;-76
2020/12/17 06:58:25;;;;;;;56.17;33.58;;;5.70;89.70;;;;;;4928855;28;87284;-76
2020/12/17 07:00:52;;;;;;;61.53;36.40;;;5.70;89.50;;;;;;4945648;28;88420;-76
2020/12/17 07:03:41;;;;;;;57.90;35.07;;;5.70;89.70;;;;;;4932318;28;88096;-76
2020/12/17 07:06:24;;;;;;;58.63;35.50;;;5.70;89.90;;;;;;4946780;28;87494;-77
2020/12/17 07:08:55;;;;;;;58.60;34.17;;;5.70;89.80;;;;;;4946248;28;87092;-77
2020/12/17 07:11:43;;;;;;;59.50;33.03;;;5.70;90.00;;;;;;4937460;28;87782;-77
2020/12/17 07:14:24;;;;;;;61.70;35.27;;;5.70;90.10;;;;;;4935669;28;89431;-76
2020/12/17 07:17:02;;;;;;;62.40;34.93;;;5.70;90.00;;;;;;4927224;28;88977;-77
2020/12/17 07:19:39;;;;;;;57.97;34.53;;;5.70;89.90;;;;;;4924290;28;87013;-76
2020/12/17 07:22:07;;;;;;;57.33;34.77;;;5.70;89.80;;;;;;4923980;28;87396;-76
2020/12/17 07:24:47;;;;;;;56.40;34.53;;;5.70;89.80;;;;;;4935495;28;91934;-76
2020/12/17 07:27:32;;;;;;;60.73;35.00;;;5.80;89.70;;;;;;4936084;28;88324;-76
2020/12/17 07:30:02;;;;;;;62.63;35.83;;;5.80;89.70;;;;;;4923362;28;86866;-76
2020/12/17 07:32:46;;;;;;;54.10;33.40;;;5.90;89.20;;;;;;4933579;28;86603;-77
2020/12/17 07:35:12;;;;;;;53.60;32.00;;;5.90;88.40;;;;;;4920630;28;88659;-76
2020/12/17 07:37:41;;;;;;;56.13;33.03;;;5.90;88.90;;;;;;4923274;28;91157;-77
2020/12/17 07:40:25;;;;;;;51.70;31.53;;;6.00;88.00;;;;;;4906036;28;88172;-76
2020/12/17 07:43:02;;;;;;;52.73;31.03;;;6.00;87.60;;;;;;4923471;28;87741;-76
2020/12/17 07:45:49;;;;;;;53.77;31.50;;;5.90;87.70;;;;;;4930446;28;87930;-77
2020/12/17 07:48:32;;;;;;;56.60;33.07;;;5.80;87.50;;;;;;4929453;28;87470;-76
2020/12/17 07:51:03;;;;;;;48.90;29.73;;;5.80;87.60;;;;;;4934315;28;87273;-76
2020/12/17 07:53:28;;;;;;;46.60;29.90;;;5.90;87.40;;;;;;4926742;28;87597;-76
2020/12/17 07:55:54;;;;;;;45.10;28.77;;;6.00;86.30;;;;;;4943063;28;91386;-76
2020/12/17 07:58:20;;;;;;;47.40;29.80;;;6.00;85.70;;;;;;4932655;28;90621;-76
2020/12/17 08:00:46;;;;;;;46.53;29.10;;;6.20;84.90;;;;;;4933515;28;87459;-77
2020/12/17 08:03:12;;;;;;;44.50;27.50;;;6.20;83.70;;;;;;4927354;28;87311;-76
2020/12/17 08:05:38;;;;;;;46.30;29.47;;;6.30;83.00;;;;;;4932650;28;92287;-76
2020/12/17 08:08:05;;;;;;;47.07;29.27;;;6.50;82.50;;;;;;4928027;28;92774;-76
2020/12/17 08:10:38;;;;;;;49.67;28.40;;;6.70;81.40;;;;;;4936295;28;87006;-76
2020/12/17 08:13:04;;;;;;;49.07;28.80;;;6.80;79.60;;;;;;4933774;28;87482;-77
2020/12/17 08:15:30;;;;;;;43.23;27.40;;;6.90;79.10;;;;;;4925943;28;91016;-78
2020/12/17 08:17:57;;;;;;;44.17;27.70;;;7.00;78.30;;;;;;4913665;28;91182;-78
2020/12/17 08:20:26;;;;;;;42.30;26.90;;;7.00;77.40;;;;;;4905027;28;87482;-78
2020/12/17 08:22:52;;;;;;;44.07;28.20;;;7.00;77.70;;;;;;4922367;28;87979;-79
2020/12/17 08:25:19;;;;;;;42.27;26.87;;;7.00;77.70;;;;;;4924716;28;88711;-78
2020/12/17 08:27:46;;;;;;;45.27;26.60;;;7.10;76.50;;;;;;4931055;28;88066;-78
2020/12/17 08:30:13;;;;;;;40.50;25.33;;;7.30;75.70;;;;;;4935333;28;88246;-78
2020/12/17 08:32:53;;;;;;;46.10;28.33;;;7.30;73.70;;;;;;4922737;28;87349;-79
2020/12/17 08:35:24;;;;;;;45.73;29.20;;;7.10;74.90;;;;;;4913121;28;90944;-79
2020/12/17 08:37:54;;;;;;;47.97;29.60;;;7.20;75.10;;;;;;4905246;28;91867;-78
2020/12/17 08:40:28;;;;;;;46.17;28.38;;;7.10;74.20;;;;;;4922515;28;86885;-78
2020/12/17 08:43:10;;;;;;;40.50;26.80;;;7.10;75.00;;;;;;4921491;28;88102;-80
2020/12/17 08:45:41;;;;;;;37.97;24.85;;;7.20;74.70;;;;;;4924568;28;88619;-79
2020/12/17 08:48:17;;;;;;;40.25;24.65;;;7.40;73.90;;;;;;4923511;28;91030;-78
2020/12/17 08:50:44;;;;;;;37.10;26.00;;;7.60;72.90;;;;;;4929726;28;87602;-79
2020/12/17 08:53:22;;;;;;;36.08;24.80;;;7.60;72.30;;;;;;4939156;28;87632;-79
2020/12/17 08:56:26;;;;;;;40.72;26.10;;;7.80;72.50;;;;;;4936387;28;88838;-78
2020/12/17 08:59:04;;;;;;;38.10;24.73;;;7.90;71.30;;;;;;4897250;28;91464;-77
2020/12/17 09:01:35;;;;;;;40.28;26.73;;;8.10;71.30;;;;;;4907209;28;87084;-78
2020/12/17 09:04:08;;;;;;;39.67;25.40;;;8.20;70.60;;;;;;4906653;28;87833;-79
2020/12/17 09:06:37;;;;;;;44.63;28.23;;;8.20;69.40;;;;;;4878159;28;88161;-79
2020/12/17 09:09:18;;;;;;;39.90;27.08;;;8.20;69.90;;;;;;4894472;28;87973;-79
2020/12/17 09:11:47;;;;;;;40.33;26.97;;;8.00;70.10;;;;;;4885462;28;87394;-79
2020/12/17 09:14:19;;;;;;;44.05;28.80;;;8.00;70.90;;;;;;4901288;28;86918;-79
2020/12/17 09:16:47;;;;;;;43.08;26.85;;;8.00;70.90;;;;;;4884311;28;91022;-79
2020/12/17 09:19:12;;;;;;;41.55;28.33;;;8.10;71.00;;;;;;4900404;28;90796;-79
2020/12/17 09:21:59;;;;;;;44.90;29.48;;;8.20;70.50;;;;;;4884433;28;88081;-78
2020/12/17 09:24:29;;;;;;;44.53;27.50;;;8.20;70.40;;;;;;4881513;28;87255;-78
2020/12/17 09:26:56;;;;;;;40.25;25.65;;;8.30;69.70;;;;;;4883401;28;92013;-78
2020/12/17 09:29:22;;;;;;;37.85;26.00;;;8.20;70.20;;;;;;4915041;28;88047;-79
2020/12/17 09:31:48;;;;;;;37.63;25.80;;;8.20;70.40;;;;;;4943647;28;86879;-78
2020/12/17 09:34:22;;;;;;;38.67;26.23;;;8.20;70.60;;;;;;4922665;28;88114;-78
2020/12/17 09:36:57;;;;;;;38.63;26.08;;;8.30;70.40;;;;;;4951080;28;88778;-78
2020/12/17 09:39:24;;;;;;;41.78;27.27;;;8.20;70.40;;;;;;4938942;28;91186;-79
2020/12/17 09:41:56;;;;;;;42.78;26.20;;;8.30;69.90;;;;;;4939372;28;87341;-78
2020/12/17 09:44:32;;;;;;;37.63;25.80;;;8.00;70.50;;;;;;4929722;28;87062;-79
2020/12/17 09:47:03;;;;;;;39.33;27.33;;;8.00;71.00;;;;;;4940139;28;88917;-80
2020/12/17 09:49:34;;;;;;;38.13;26.15;;;8.10;71.50;;;;;;4947307;28;88581;-79
2020/12/17 09:52:06;;;;;;;39.65;26.25;;;8.30;70.20;;;;;;4954330;28;87023;-79
2020/12/17 09:54:32;;;;;;;38.75;25.80;;;8.30;70.10;;;;;;4953677;28;87712;-79
2020/12/17 09:57:06;;;;;;;40.13;25.73;;;8.10;71.00;;;;;;4929983;28;90265;-78
2020/12/17 09:59:33;;;;;;;38.90;26.65;;;8.00;71.10;;;;;;4944392;28;88234;-78
2020/12/17 10:02:00;;;;;;;38.15;25.50;;;7.90;71.90;;;;;;4941279;28;87351;-78
2020/12/17 10:04:27;;;;;;;34.55;23.55;;;8.00;71.70;;;;;;4942785;28;86448;-78
2020/12/17 10:06:53;;;;;;;39.65;25.63;;;8.10;71.80;;;;;;4941022;28;91762;-78
2020/12/17 10:09:20;;;;;;;40.60;25.65;;;8.10;71.00;;;;;;4940884;28;87515;-79
2020/12/17 10:11:52;;;;;;;34.13;24.50;;;8.20;71.10;;;;;;4942132;28;88514;-79
2020/12/17 10:14:18;;;;;;;35.92;23.95;;;8.20;71.00;;;;;;4941684;28;87938;-78
2020/12/17 10:16:45;;;;;;;30.65;21.85;;;8.50;70.20;;;;;;4940756;28;90886;-78
2020/12/17 10:19:12;;;;;;;35.67;24.13;;;8.40;69.70;;;;;;4936336;28;91431;-77
2020/12/17 10:21:38;;;;;;;33.70;23.17;;;8.20;70.40;;;;;;4945100;28;86980;-76
2020/12/17 10:24:05;;;;;;;34.63;22.77;;;8.20;70.90;;;;;;4943759;28;87140;-78
2020/12/17 10:26:32;;;;;;;37.60;24.60;;;8.30;70.60;;;;;;4930848;28;91346;-77
2020/12/17 10:28:58;;;;;;;33.67;24.55;;;8.50;70.00;;;;;;4930587;28;87544;-77
2020/12/17 10:31:28;;;;;;;36.30;23.67;;;8.40;70.00;;;;;;4945202;28;87495;-77
2020/12/17 10:33:54;;;;;;;32.58;22.58;;;8.40;70.10;;;;;;4944514;28;87687;-78
2020/12/17 10:36:21;;;;;;;31.00;21.58;;;8.40;70.40;;;;;;4944041;28;91837;-77
2020/12/17 10:38:47;;;;;;;33.08;22.27;;;8.20;70.90;;;;;;4939253;28;89689;-76
2020/12/17 10:41:13;;;;;;;34.92;21.92;;;8.20;70.90;;;;;;4907336;28;86998;-77
2020/12/17 10:43:39;;;;;;;34.83;22.55;;;7.90;72.10;;;;;;4924423;28;87243;-78
2020/12/17 10:46:05;;;;;;;32.33;21.83;;;7.90;72.80;;;;;;4924246;28;88575;-77
2020/12/17 10:48:31;;;;;;;30.90;21.23;;;7.90;73.10;;;;;;4922931;28;91337;-77
2020/12/17 10:50:56;;;;;;;31.23;23.63;;;7.90;72.60;;;;;;4923656;28;87115;-77
2020/12/17 10:53:22;;;;;;;34.03;21.92;;;8.00;72.90;;;;;;4947704;28;88499;-77
2020/12/17 10:55:48;;;;;;;29.02;21.00;;;8.20;72.00;;;;;;4943946;28;91192;-77
2020/12/17 10:58:15;;;;;;;32.20;22.20;;;8.20;71.50;;;;;;4923587;28;87726;-77
2020/12/17 11:00:41;;;;;;;30.80;21.73;;;7.90;72.50;;;;;;4938216;28;88299;-77
2020/12/17 11:03:07;;;;;;;27.80;19.50;;;7.60;74.10;;;;;;4924216;28;87577;-77
2020/12/17 11:05:36;;;;;;;31.30;21.80;;;7.60;74.80;;;;;;4924043;28;88178;-77
2020/12/17 11:08:03;;;;;;;28.73;19.93;;;7.60;74.60;;;;;;4907766;28;91203;-77
2020/12/17 11:10:30;;;;;;;33.53;21.03;;;7.80;74.00;;;;;;4924161;28;87515;-78
2020/12/17 11:12:55;;;;;;;32.20;20.70;;;7.90;73.50;;;;;;4923761;28;87570;-77
2020/12/17 11:15:21;;;;;;;27.07;18.73;;;7.80;73.20;;;;;;4936324;28;88677;-78
2020/12/17 11:17:47;;;;;;;28.67;19.13;;;7.70;73.90;;;;;;4952945;28;87512;-78
2020/12/17 11:20:13;;;;;;;27.93;19.63;;;7.60;74.40;;;;;;4964253;28;87585;-78
2020/12/17 11:22:39;;;;;;;27.47;18.60;;;7.70;74.10;;;;;;4941733;28;89119;-77
2020/12/17 11:25:06;;;;;;;33.23;19.53;;;7.60;74.30;;;;;;4925932;28;92802;-79
2020/12/17 11:27:31;;;;;;;28.63;19.70;;;7.60;74.80;;;;;;4923041;28;92346;-77
2020/12/17 11:29:57;;;;;;;29.83;19.57;;;7.50;74.90;;;;;;4922438;28;87286;-78
2020/12/17 11:32:23;;;;;;;27.67;18.13;;;7.60;74.50;;;;;;4924510;28;87194;-77
2020/12/17 11:34:50;;;;;;;25.73;18.03;;;7.70;74.20;;;;;;4934846;28;92025;-77
2020/12/17 11:37:16;;;;;;;30.63;19.33;;;7.70;74.30;;;;;;4921461;28;90259;-78
2020/12/17 11:39:42;;;;;;;27.45;19.50;;;7.60;74.30;;;;;;4935735;28;87118;-77
2020/12/17 11:42:08;;;;;;;28.47;18.23;;;7.60;74.50;;;;;;4923096;28;86831;-77
2020/12/17 11:44:34;;;;;;;28.77;19.43;;;7.70;74.30;;;;;;4922166;28;91201;-77
2020/12/17 11:47:00;;;;;;;32.13;19.87;;;7.60;74.50;;;;;;4922006;28;88040;-78
2020/12/17 11:49:25;;;;;;;32.43;19.20;;;7.50;74.80;;;;;;4922014;28;87996;-77
2020/12/17 11:51:52;;;;;;;31.20;20.33;;;7.40;75.70;;;;;;4923948;28;86852;-77
2020/12/17 11:54:19;;;;;;;30.73;19.30;;;7.40;76.40;;;;;;4933595;28;91308;-77
2020/12/17 11:56:49;;;;;;;29.80;19.60;;;7.20;76.60;;;;;;4921212;28;91451;-77
2020/12/17 11:59:16;;;;;;;30.23;19.77;;;7.10;77.20;;;;;;4934124;28;87034;-77
2020/12/17 12:01:42;;;;;;;26.13;18.77;;;7.00;78.40;;;;;;4921913;28;87938;-77
2020/12/17 12:04:11;;;;;;;27.17;19.40;;;7.10;78.10;;;;;;4921602;28;90878;-77
2020/12/17 12:06:37;;;;;;;27.77;20.10;;;7.10;78.10;;;;;;4932744;28;87859;-78
2020/12/17 12:09:06;;;;;;;26.93;20.37;;;7.00;78.60;;;;;;4937895;28;87035;-77
2020/12/17 12:11:32;;;;;;;28.23;20.00;;;7.00;79.10;;;;;;4933848;28;87126;-77
2020/12/17 12:13:57;;;;;;;27.47;19.60;;;6.90;79.50;;;;;;4920706;28;92290;-77
2020/12/17 12:16:24;;;;;;;30.47;20.20;;;7.00;79.70;;;;;;4922927;28;92269;-77
2020/12/17 12:18:50;;;;;;;34.63;20.53;;;7.00;79.20;;;;;;4936977;28;87289;-77
2020/12/17 12:21:17;;;;;;;26.93;18.97;;;7.00;79.50;;;;;;4930290;28;88241;-77
2020/12/17 12:23:43;;;;;;;31.57;20.57;;;6.90;80.00;;;;;;4925331;28;91535;-77
2020/12/17 12:26:10;;;;;;;29.07;20.07;;;6.90;80.20;;;;;;4919759;28;91315;-78
2020/12/17 12:28:38;;;;;;;32.97;20.50;;;6.90;80.40;;;;;;4920988;28;86948;-78
2020/12/17 12:31:04;;;;;;;28.90;20.07;;;6.90;80.60;;;;;;4904622;28;86735;-77
2020/12/17 12:33:31;;;;;;;30.50;20.23;;;7.00;80.40;;;;;;4908093;28;91658;-77
2020/12/17 12:35:57;;;;;;;30.70;21.43;;;6.90;80.50;;;;;;4939337;28;90867;-78
2020/12/17 12:38:24;;;;;;;32.27;18.77;;;7.00;80.60;;;;;;4934900;28;87996;-77
2020/12/17 12:40:49;;;;;;;33.80;20.43;;;7.10;80.10;;;;;;4915165;28;88563;-77
2020/12/17 12:43:15;;;;;;;29.40;19.03;;;7.10;80.20;;;;;;4921431;28;88743;-77